Bourne End, United Kingdom
Current Conditions -  °F | °C
As of 12:50 PM on Sunday 21 Dec 2014 (Local Time) from EGWU Reporting Station
Broken Clouds Broken Clouds  
Wind Chill: 50°   Ceiling: 2200
Heat Index: 50°   Visibility: 6mi
Dew Point: 41°   Wind: 18mph
Humidity: 71%   Direction: 260°W
Pressure: 30.3"   Gusts: 30mph
Location:  51.57°N, 0.71°W
Report Text: EGWU 211250Z 26016G26KT 9999 FEW018 BKN022 10/05 Q1026 NOSIG
Loading
Personal Weather Stations






























Interactive Weather Map New forecast layout! Learn more

10-Day Weather Forecast

Advertisements
Track Severe Weather on mobile